sensor_id;sensor_type;location;lat;lon;timestamp;temperature;humidity
4749;DHT22;2388;53.582;9.962;2023-04-15T00:00:10;8.90;99.90
4749;DHT22;2388;53.582;9.962;2023-04-15T00:02:36;9.00;99.90
4749;DHT22;2388;53.582;9.962;2023-04-15T00:05:02;9.00;99.90
4749;DHT22;2388;53.582;9.962;2023-04-15T00:07:28;8.90;99.90
4749;DHT22;2388;53.582;9.962;2023-04-15T00:09:54;8.90;99.90
4749;DHT22;2388;53.582;9.962;2023-04-15T00:12:22;8.90;99.90
4749;DHT22;2388;53.582;9.962;2023-04-15T00:14:48;8.90;99.90
4749;DHT22;2388;53.582;9.962;2023-04-15T00:17:14;9.00;99.90
4749;DHT22;2388;53.582;9.962;2023-04-15T00:19:39;9.00;99.90
4749;DHT22;2388;53.582;9.962;2023-04-15T00:22:05;9.00;99.90
4749;DHT22;2388;53.582;9.962;2023-04-15T00:24:31;9.00;99.90
4749;DHT22;2388;53.582;9.962;2023-04-15T00:26:57;9.00;99.90
4749;DHT22;2388;53.582;9.962;2023-04-15T00:29:23;9.00;99.90
4749;DHT22;2388;53.582;9.962;2023-04-15T00:31:48;9.20;99.90
4749;DHT22;2388;53.582;9.962;2023-04-15T00:34:14;9.00;99.90
4749;DHT22;2388;53.582;9.962;2023-04-15T00:36:39;9.00;99.90
4749;DHT22;2388;53.582;9.962;2023-04-15T00:39:05;9.00;99.90
4749;DHT22;2388;53.582;9.962;2023-04-15T00:41:31;9.00;99.90
4749;DHT22;2388;53.582;9.962;2023-04-15T00:43:58;9.00;99.90
4749;DHT22;2388;53.582;9.962;2023-04-15T00:46:26;9.00;99.90
4749;DHT22;2388;53.582;9.962;2023-04-15T00:48:53;9.00;99.90
4749;DHT22;2388;53.582;9.962;2023-04-15T00:51:19;9.00;99.90
4749;DHT22;2388;53.582;9.962;2023-04-15T00:53:44;9.00;99.90
4749;DHT22;2388;53.582;9.962;2023-04-15T00:56:10;9.00;99.90
4749;DHT22;2388;53.582;9.962;2023-04-15T00:58:36;9.00;99.90
4749;DHT22;2388;53.582;9.962;2023-04-15T01:01:03;9.00;99.90
4749;DHT22;2388;53.582;9.962;2023-04-15T01:03:28;9.10;99.90
4749;DHT22;2388;53.582;9.962;2023-04-15T01:05:54;9.00;99.90
4749;DHT22;2388;53.582;9.962;2023-04-15T01:08:28;9.00;99.90
4749;DHT22;2388;53.582;9.962;2023-04-15T01:10:55;9.00;99.90
4749;DHT22;2388;53.582;9.962;2023-04-15T01:13:22;9.00;99.90
4749;DHT22;2388;53.582;9.962;2023-04-15T01:15:49;9.00;99.90
4749;DHT22;2388;53.582;9.962;2023-04-15T01:18:14;9.00;99.90
4749;DHT22;2388;53.582;9.962;2023-04-15T01:20:40;9.00;99.90
4749;DHT22;2388;53.582;9.962;2023-04-15T01:23:06;9.00;99.90
4749;DHT22;2388;53.582;9.962;2023-04-15T01:25:33;9.00;99.90
4749;DHT22;2388;53.582;9.962;2023-04-15T01:27:59;9.00;99.90
4749;DHT22;2388;53.582;9.962;2023-04-15T01:30:25;9.00;99.90
4749;DHT22;2388;53.582;9.962;2023-04-15T01:32:51;9.00;99.90
4749;DHT22;2388;53.582;9.962;2023-04-15T01:35:17;9.00;99.90
4749;DHT22;2388;53.582;9.962;2023-04-15T01:37:43;8.90;99.90
4749;DHT22;2388;53.582;9.962;2023-04-15T01:40:09;8.90;99.90
4749;DHT22;2388;53.582;9.962;2023-04-15T01:42:35;9.40;99.90
4749;DHT22;2388;53.582;9.962;2023-04-15T01:45:01;9.00;99.90
4749;DHT22;2388;53.582;9.962;2023-04-15T01:47:27;9.00;99.90
4749;DHT22;2388;53.582;9.962;2023-04-15T01:49:52;9.00;99.90
4749;DHT22;2388;53.582;9.962;2023-04-15T01:52:18;9.00;99.90
4749;DHT22;2388;53.582;9.962;2023-04-15T01:54:43;9.00;99.90
4749;DHT22;2388;53.582;9.962;2023-04-15T01:57:09;9.00;99.90
4749;DHT22;2388;53.582;9.962;2023-04-15T01:59:34;9.00;99.90
4749;DHT22;2388;53.582;9.962;2023-04-15T02:02:00;9.00;99.90
4749;DHT22;2388;53.582;9.962;2023-04-15T02:04:26;9.00;99.90
4749;DHT22;2388;53.582;9.962;2023-04-15T02:06:52;9.00;99.90
4749;DHT22;2388;53.582;9.962;2023-04-15T02:09:17;9.00;99.90
4749;DHT22;2388;53.582;9.962;2023-04-15T02:11:43;9.00;99.90
4749;DHT22;2388;53.582;9.962;2023-04-15T02:14:09;9.00;99.90
4749;DHT22;2388;53.582;9.962;2023-04-15T02:16:34;8.90;99.90
4749;DHT22;2388;53.582;9.962;2023-04-15T02:19:00;8.90;99.90
4749;DHT22;2388;53.582;9.962;2023-04-15T02:21:26;8.90;99.90
4749;DHT22;2388;53.582;9.962;2023-04-15T02:23:51;8.90;99.90
4749;DHT22;2388;53.582;9.962;2023-04-15T02:26:18;9.00;99.90
4749;DHT22;2388;53.582;9.962;2023-04-15T02:28:45;9.00;99.90
4749;DHT22;2388;53.582;9.962;2023-04-15T02:31:11;9.00;99.90
4749;DHT22;2388;53.582;9.962;2023-04-15T02:33:36;9.00;99.90
4749;DHT22;2388;53.582;9.962;2023-04-15T02:36:02;8.90;99.90
4749;DHT22;2388;53.582;9.962;2023-04-15T02:38:28;9.10;99.90
4749;DHT22;2388;53.582;9.962;2023-04-15T02:40:55;9.00;99.90
4749;DHT22;2388;53.582;9.962;2023-04-15T02:43:21;9.00;99.90
4749;DHT22;2388;53.582;9.962;2023-04-15T02:45:47;8.90;99.90
4749;DHT22;2388;53.582;9.962;2023-04-15T02:48:12;8.90;99.90
4749;DHT22;2388;53.582;9.962;2023-04-15T02:50:38;9.00;99.90
4749;DHT22;2388;53.582;9.962;2023-04-15T02:53:05;9.00;99.90
4749;DHT22;2388;53.582;9.962;2023-04-15T02:55:30;9.00;99.90
4749;DHT22;2388;53.582;9.962;2023-04-15T02:57:56;9.00;99.90
4749;DHT22;2388;53.582;9.962;2023-04-15T03:00:24;9.00;99.90
4749;DHT22;2388;53.582;9.962;2023-04-15T03:02:50;9.00;99.90
4749;DHT22;2388;53.582;9.962;2023-04-15T03:05:21;9.00;99.90
4749;DHT22;2388;53.582;9.962;2023-04-15T03:07:53;9.00;99.90
4749;DHT22;2388;53.582;9.962;2023-04-15T03:10:18;9.00;99.90
4749;DHT22;2388;53.582;9.962;2023-04-15T03:12:44;9.00;99.90
4749;DHT22;2388;53.582;9.962;2023-04-15T03:15:10;9.00;99.90
4749;DHT22;2388;53.582;9.962;2023-04-15T03:17:35;9.00;99.90
4749;DHT22;2388;53.582;9.962;2023-04-15T03:20:02;9.00;99.90
4749;DHT22;2388;53.582;9.962;2023-04-15T03:22:29;9.00;99.90
4749;DHT22;2388;53.582;9.962;2023-04-15T03:24:55;9.00;99.90
4749;DHT22;2388;53.582;9.962;2023-04-15T03:27:21;9.00;99.90
4749;DHT22;2388;53.582;9.962;2023-04-15T03:29:46;9.10;99.90
4749;DHT22;2388;53.582;9.962;2023-04-15T03:32:12;9.00;99.90
4749;DHT22;2388;53.582;9.962;2023-04-15T03:34:39;9.00;99.90
4749;DHT22;2388;53.582;9.962;2023-04-15T03:37:05;9.00;99.90
4749;DHT22;2388;53.582;9.962;2023-04-15T03:39:31;9.00;99.90
4749;DHT22;2388;53.582;9.962;2023-04-15T03:41:57;9.00;99.90
4749;DHT22;2388;53.582;9.962;2023-04-15T03:44:23;9.00;99.90
4749;DHT22;2388;53.582;9.962;2023-04-15T03:46:49;9.00;99.90
4749;DHT22;2388;53.582;9.962;2023-04-15T03:49:14;9.00;99.90
4749;DHT22;2388;53.582;9.962;2023-04-15T03:51:40;9.00;99.90
4749;DHT22;2388;53.582;9.962;2023-04-15T03:54:05;9.00;99.90
4749;DHT22;2388;53.582;9.962;2023-04-15T03:56:31;9.00;99.90
4749;DHT22;2388;53.582;9.962;2023-04-15T03:58:56;9.00;99.90
4749;DHT22;2388;53.582;9.962;2023-04-15T04:01:22;9.00;99.90
4749;DHT22;2388;53.582;9.962;2023-04-15T04:03:47;9.00;99.90
4749;DHT22;2388;53.582;9.962;2023-04-15T04:06:13;9.10;99.90
4749;DHT22;2388;53.582;9.962;2023-04-15T04:08:40;9.10;99.90
4749;DHT22;2388;53.582;9.962;2023-04-15T04:11:05;9.00;99.90
4749;DHT22;2388;53.582;9.962;2023-04-15T04:13:31;9.00;99.90
4749;DHT22;2388;53.582;9.962;2023-04-15T04:15:56;9.10;99.90
4749;DHT22;2388;53.582;9.962;2023-04-15T04:18:22;9.00;99.90
4749;DHT22;2388;53.582;9.962;2023-04-15T04:20:47;9.00;99.90
4749;DHT22;2388;53.582;9.962;2023-04-15T04:23:13;9.00;99.90
4749;DHT22;2388;53.582;9.962;2023-04-15T04:25:38;9.00;99.90
4749;DHT22;2388;53.582;9.962;2023-04-15T04:28:04;9.00;99.90
4749;DHT22;2388;53.582;9.962;2023-04-15T04:30:29;9.00;99.90
4749;DHT22;2388;53.582;9.962;2023-04-15T04:32:55;9.00;99.90
4749;DHT22;2388;53.582;9.962;2023-04-15T04:35:20;9.00;99.90
4749;DHT22;2388;53.582;9.962;2023-04-15T04:37:46;9.00;99.90
4749;DHT22;2388;53.582;9.962;2023-04-15T04:40:12;9.00;99.90
4749;DHT22;2388;53.582;9.962;2023-04-15T04:42:38;9.00;99.90
4749;DHT22;2388;53.582;9.962;2023-04-15T04:45:03;9.00;99.90
4749;DHT22;2388;53.582;9.962;2023-04-15T04:47:29;9.00;99.90
4749;DHT22;2388;53.582;9.962;2023-04-15T04:49:55;9.00;99.90
4749;DHT22;2388;53.582;9.962;2023-04-15T04:52:20;9.00;99.90
4749;DHT22;2388;53.582;9.962;2023-04-15T04:54:46;9.00;99.90
4749;DHT22;2388;53.582;9.962;2023-04-15T04:57:12;9.00;99.90
4749;DHT22;2388;53.582;9.962;2023-04-15T04:59:38;9.00;99.90
4749;DHT22;2388;53.582;9.962;2023-04-15T05:02:03;9.00;99.90
4749;DHT22;2388;53.582;9.962;2023-04-15T05:04:30;9.00;99.90
4749;DHT22;2388;53.582;9.962;2023-04-15T05:06:56;9.00;99.90
4749;DHT22;2388;53.582;9.962;2023-04-15T05:09:28;9.40;99.90
4749;DHT22;2388;53.582;9.962;2023-04-15T05:11:56;9.70;99.90
4749;DHT22;2388;53.582;9.962;2023-04-15T05:14:22;9.00;99.90
4749;DHT22;2388;53.582;9.962;2023-04-15T05:16:47;9.10;99.90
4749;DHT22;2388;53.582;9.962;2023-04-15T05:19:13;9.00;99.90
4749;DHT22;2388;53.582;9.962;2023-04-15T05:21:38;9.00;99.90
4749;DHT22;2388;53.582;9.962;2023-04-15T05:24:04;9.00;99.90
4749;DHT22;2388;53.582;9.962;2023-04-15T05:26:29;9.00;99.90
4749;DHT22;2388;53.582;9.962;2023-04-15T05:28:55;9.00;99.90
4749;DHT22;2388;53.582;9.962;2023-04-15T05:31:21;9.00;99.90
4749;DHT22;2388;53.582;9.962;2023-04-15T05:33:47;9.00;99.90
4749;DHT22;2388;53.582;9.962;2023-04-15T05:36:12;9.00;99.90
4749;DHT22;2388;53.582;9.962;2023-04-15T05:38:38;9.10;99.90
4749;DHT22;2388;53.582;9.962;2023-04-15T05:41:03;9.10;99.90
4749;DHT22;2388;53.582;9.962;2023-04-15T05:43:29;9.20;99.90
4749;DHT22;2388;53.582;9.962;2023-04-15T05:45:54;9.20;99.90
4749;DHT22;2388;53.582;9.962;2023-04-15T05:48:20;9.20;99.90
4749;DHT22;2388;53.582;9.962;2023-04-15T05:50:46;9.20;99.90
4749;DHT22;2388;53.582;9.962;2023-04-15T05:53:11;9.20;99.90
4749;DHT22;2388;53.582;9.962;2023-04-15T05:55:37;9.20;99.90
4749;DHT22;2388;53.582;9.962;2023-04-15T05:58:02;9.10;99.90
4749;DHT22;2388;53.582;9.962;2023-04-15T06:00:28;9.10;99.90
4749;DHT22;2388;53.582;9.962;2023-04-15T06:02:55;9.10;99.90
4749;DHT22;2388;53.582;9.962;2023-04-15T06:05:20;9.10;99.90
4749;DHT22;2388;53.582;9.962;2023-04-15T06:07:46;9.10;99.90
4749;DHT22;2388;53.582;9.962;2023-04-15T06:10:11;9.10;99.90
4749;DHT22;2388;53.582;9.962;2023-04-15T06:12:37;9.10;99.90
4749;DHT22;2388;53.582;9.962;2023-04-15T06:15:02;9.10;99.90
4749;DHT22;2388;53.582;9.962;2023-04-15T06:17:28;9.20;99.90
4749;DHT22;2388;53.582;9.962;2023-04-15T06:19:53;9.20;99.90
4749;DHT22;2388;53.582;9.962;2023-04-15T06:22:23;9.20;99.90
4749;DHT22;2388;53.582;9.962;2023-04-15T06:24:48;9.20;99.90
4749;DHT22;2388;53.582;9.962;2023-04-15T06:27:15;9.20;99.90
4749;DHT22;2388;53.582;9.962;2023-04-15T06:29:41;9.30;99.90
4749;DHT22;2388;53.582;9.962;2023-04-15T06:32:06;9.20;99.90
4749;DHT22;2388;53.582;9.962;2023-04-15T06:34:32;9.20;99.90
4749;DHT22;2388;53.582;9.962;2023-04-15T06:36:58;9.20;99.90
4749;DHT22;2388;53.582;9.962;2023-04-15T06:39:23;9.20;99.90
4749;DHT22;2388;53.582;9.962;2023-04-15T06:41:49;9.20;99.90
4749;DHT22;2388;53.582;9.962;2023-04-15T06:44:14;9.10;99.90
4749;DHT22;2388;53.582;9.962;2023-04-15T06:46:40;9.10;99.90
4749;DHT22;2388;53.582;9.962;2023-04-15T06:49:06;9.10;99.90
4749;DHT22;2388;53.582;9.962;2023-04-15T06:51:31;9.10;99.90
4749;DHT22;2388;53.582;9.962;2023-04-15T06:53:57;9.10;99.90
4749;DHT22;2388;53.582;9.962;2023-04-15T06:56:22;9.10;99.90
4749;DHT22;2388;53.582;9.962;2023-04-15T06:58:48;9.10;99.90
4749;DHT22;2388;53.582;9.962;2023-04-15T07:01:13;9.10;99.90
4749;DHT22;2388;53.582;9.962;2023-04-15T07:03:39;9.10;99.90
4749;DHT22;2388;53.582;9.962;2023-04-15T07:06:06;9.10;99.90
4749;DHT22;2388;53.582;9.962;2023-04-15T07:08:32;9.20;99.90
4749;DHT22;2388;53.582;9.962;2023-04-15T07:10:59;9.10;99.90
4749;DHT22;2388;53.582;9.962;2023-04-15T07:13:24;9.20;99.90
4749;DHT22;2388;53.582;9.962;2023-04-15T07:15:50;9.20;99.90
4749;DHT22;2388;53.582;9.962;2023-04-15T07:18:16;9.30;99.90
4749;DHT22;2388;53.582;9.962;2023-04-15T07:20:42;9.20;99.90
4749;DHT22;2388;53.582;9.962;2023-04-15T07:23:07;9.20;99.90
4749;DHT22;2388;53.582;9.962;2023-04-15T07:25:33;9.20;99.90
4749;DHT22;2388;53.582;9.962;2023-04-15T07:27:59;9.30;99.90
4749;DHT22;2388;53.582;9.962;2023-04-15T07:30:24;9.30;99.90
4749;DHT22;2388;53.582;9.962;2023-04-15T07:32:50;9.30;99.90
4749;DHT22;2388;53.582;9.962;2023-04-15T07:35:15;9.30;99.90
4749;DHT22;2388;53.582;9.962;2023-04-15T07:37:41;9.40;99.90
4749;DHT22;2388;53.582;9.962;2023-04-15T07:40:08;9.30;99.90
4749;DHT22;2388;53.582;9.962;2023-04-15T07:42:34;9.30;99.90
4749;DHT22;2388;53.582;9.962;2023-04-15T07:45:00;9.40;99.90
4749;DHT22;2388;53.582;9.962;2023-04-15T07:47:25;9.40;99.90
4749;DHT22;2388;53.582;9.962;2023-04-15T07:49:51;9.40;99.90
4749;DHT22;2388;53.582;9.962;2023-04-15T07:52:17;9.40;99.90
4749;DHT22;2388;53.582;9.962;2023-04-15T07:54:43;9.40;99.90
4749;DHT22;2388;53.582;9.962;2023-04-15T07:57:09;9.40;99.90
4749;DHT22;2388;53.582;9.962;2023-04-15T07:59:34;9.50;99.90
4749;DHT22;2388;53.582;9.962;2023-04-15T08:02:00;9.50;99.90
4749;DHT22;2388;53.582;9.962;2023-04-15T08:04:25;9.40;99.90
4749;DHT22;2388;53.582;9.962;2023-04-15T08:06:51;9.50;99.90
4749;DHT22;2388;53.582;9.962;2023-04-15T08:09:17;9.40;99.90
4749;DHT22;2388;53.582;9.962;2023-04-15T08:11:42;9.50;99.90
4749;DHT22;2388;53.582;9.962;2023-04-15T08:14:07;9.50;99.90
4749;DHT22;2388;53.582;9.962;2023-04-15T08:16:33;9.60;99.90
4749;DHT22;2388;53.582;9.962;2023-04-15T08:18:59;9.60;99.90
4749;DHT22;2388;53.582;9.962;2023-04-15T08:21:24;9.60;99.90
4749;DHT22;2388;53.582;9.962;2023-04-15T08:23:51;9.60;99.90
4749;DHT22;2388;53.582;9.962;2023-04-15T08:26:18;9.60;99.90
4749;DHT22;2388;53.582;9.962;2023-04-15T08:28:45;9.70;99.90
4749;DHT22;2388;53.582;9.962;2023-04-15T08:31:11;9.70;99.90
4749;DHT22;2388;53.582;9.962;2023-04-15T08:33:38;9.60;99.90
4749;DHT22;2388;53.582;9.962;2023-04-15T08:36:03;9.60;99.90
4749;DHT22;2388;53.582;9.962;2023-04-15T08:38:30;9.70;99.90
4749;DHT22;2388;53.582;9.962;2023-04-15T08:40:57;9.70;99.90
4749;DHT22;2388;53.582;9.962;2023-04-15T08:43:27;9.70;99.90
4749;DHT22;2388;53.582;9.962;2023-04-15T08:45:54;9.80;99.90
4749;DHT22;2388;53.582;9.962;2023-04-15T08:48:24;9.80;99.90
4749;DHT22;2388;53.582;9.962;2023-04-15T08:50:51;9.80;99.90
4749;DHT22;2388;53.582;9.962;2023-04-15T08:53:18;9.80;99.90
4749;DHT22;2388;53.582;9.962;2023-04-15T08:55:45;9.80;99.90
4749;DHT22;2388;53.582;9.962;2023-04-15T08:58:12;9.80;99.90
4749;DHT22;2388;53.582;9.962;2023-04-15T09:00:38;9.80;99.90
4749;DHT22;2388;53.582;9.962;2023-04-15T09:03:04;9.80;99.90
4749;DHT22;2388;53.582;9.962;2023-04-15T09:05:35;9.90;99.90
4749;DHT22;2388;53.582;9.962;2023-04-15T09:08:02;9.90;99.90
4749;DHT22;2388;53.582;9.962;2023-04-15T09:10:28;9.80;99.90
4749;DHT22;2388;53.582;9.962;2023-04-15T09:12:54;9.80;99.90
4749;DHT22;2388;53.582;9.962;2023-04-15T09:15:20;9.80;99.90
4749;DHT22;2388;53.582;9.962;2023-04-15T09:17:46;9.80;99.90
4749;DHT22;2388;53.582;9.962;2023-04-15T09:20:14;9.90;99.90
4749;DHT22;2388;53.582;9.962;2023-04-15T09:22:40;9.90;99.90
4749;DHT22;2388;53.582;9.962;2023-04-15T09:25:27;9.90;99.90
4749;DHT22;2388;53.582;9.962;2023-04-15T09:27:55;10.00;99.90
4749;DHT22;2388;53.582;9.962;2023-04-15T09:30:21;10.10;99.90
4749;DHT22;2388;53.582;9.962;2023-04-15T09:33:01;10.10;99.90
4749;DHT22;2388;53.582;9.962;2023-04-15T09:35:27;10.20;99.90
4749;DHT22;2388;53.582;9.962;2023-04-15T09:37:53;10.20;99.90
4749;DHT22;2388;53.582;9.962;2023-04-15T09:40:34;10.20;99.90
4749;DHT22;2388;53.582;9.962;2023-04-15T09:43:00;10.30;99.90
4749;DHT22;2388;53.582;9.962;2023-04-15T09:45:27;10.30;99.90
4749;DHT22;2388;53.582;9.962;2023-04-15T09:47:53;10.30;99.90
4749;DHT22;2388;53.582;9.962;2023-04-15T09:50:19;10.40;99.90
4749;DHT22;2388;53.582;9.962;2023-04-15T09:52:46;10.50;99.90
4749;DHT22;2388;53.582;9.962;2023-04-15T09:55:12;10.60;99.90
4749;DHT22;2388;53.582;9.962;2023-04-15T09:57:39;10.60;99.90
4749;DHT22;2388;53.582;9.962;2023-04-15T10:00:09;10.70;99.90
4749;DHT22;2388;53.582;9.962;2023-04-15T10:02:36;10.70;99.90
4749;DHT22;2388;53.582;9.962;2023-04-15T10:05:02;10.80;99.90
4749;DHT22;2388;53.582;9.962;2023-04-15T10:07:28;10.90;99.90
4749;DHT22;2388;53.582;9.962;2023-04-15T10:09:55;10.90;99.90
4749;DHT22;2388;53.582;9.962;2023-04-15T10:12:21;11.00;99.90
4749;DHT22;2388;53.582;9.962;2023-04-15T10:14:51;11.00;99.90
4749;DHT22;2388;53.582;9.962;2023-04-15T10:17:17;11.00;99.90
4749;DHT22;2388;53.582;9.962;2023-04-15T10:19:47;11.00;99.90
4749;DHT22;2388;53.582;9.962;2023-04-15T10:22:14;11.10;99.90
4749;DHT22;2388;53.582;9.962;2023-04-15T10:24:40;11.10;99.90
4749;DHT22;2388;53.582;9.962;2023-04-15T10:27:06;11.20;99.90
4749;DHT22;2388;53.582;9.962;2023-04-15T10:29:32;11.30;99.90
4749;DHT22;2388;53.582;9.962;2023-04-15T10:31:58;11.30;99.90
4749;DHT22;2388;53.582;9.962;2023-04-15T10:34:25;11.40;99.90
4749;DHT22;2388;53.582;9.962;2023-04-15T10:36:54;11.50;99.90
4749;DHT22;2388;53.582;9.962;2023-04-15T10:42:15;11.70;99.90
4749;DHT22;2388;53.582;9.962;2023-04-15T10:44:51;11.70;99.90
4749;DHT22;2388;53.582;9.962;2023-04-15T10:47:20;11.80;99.90
4749;DHT22;2388;53.582;9.962;2023-04-15T10:49:48;11.80;99.90
4749;DHT22;2388;53.582;9.962;2023-04-15T10:52:16;11.90;99.90
4749;DHT22;2388;53.582;9.962;2023-04-15T10:54:42;11.90;99.90
4749;DHT22;2388;53.582;9.962;2023-04-15T10:57:14;12.00;99.90
4749;DHT22;2388;53.582;9.962;2023-04-15T11:02:53;12.10;99.90
4749;DHT22;2388;53.582;9.962;2023-04-15T11:05:21;12.20;99.90
4749;DHT22;2388;53.582;9.962;2023-04-15T11:07:49;12.30;99.90
4749;DHT22;2388;53.582;9.962;2023-04-15T11:12:56;12.50;99.90
4749;DHT22;2388;53.582;9.962;2023-04-15T11:17:58;12.70;99.90
4749;DHT22;2388;53.582;9.962;2023-04-15T11:20:23;12.70;99.90
4749;DHT22;2388;53.582;9.962;2023-04-15T11:22:50;12.80;99.90
4749;DHT22;2388;53.582;9.962;2023-04-15T11:25:30;12.70;99.90
4749;DHT22;2388;53.582;9.962;2023-04-15T11:27:56;12.70;99.90
4749;DHT22;2388;53.582;9.962;2023-04-15T11:30:22;12.70;99.90
4749;DHT22;2388;53.582;9.962;2023-04-15T11:32:53;12.70;99.90
4749;DHT22;2388;53.582;9.962;2023-04-15T11:35:19;12.70;99.90
4749;DHT22;2388;53.582;9.962;2023-04-15T11:37:45;12.70;99.90
4749;DHT22;2388;53.582;9.962;2023-04-15T11:40:11;12.70;99.90
4749;DHT22;2388;53.582;9.962;2023-04-15T11:42:37;12.70;99.90
4749;DHT22;2388;53.582;9.962;2023-04-15T11:45:06;12.70;99.90
4749;DHT22;2388;53.582;9.962;2023-04-15T11:47:31;12.70;99.90
4749;DHT22;2388;53.582;9.962;2023-04-15T11:50:05;12.70;99.90
4749;DHT22;2388;53.582;9.962;2023-04-15T11:52:37;12.70;99.90
4749;DHT22;2388;53.582;9.962;2023-04-15T11:55:03;12.70;99.90
4749;DHT22;2388;53.582;9.962;2023-04-15T11:57:31;12.70;99.90
4749;DHT22;2388;53.582;9.962;2023-04-15T11:59:59;12.70;99.90
4749;DHT22;2388;53.582;9.962;2023-04-15T12:02:30;12.70;99.90
4749;DHT22;2388;53.582;9.962;2023-04-15T12:05:07;12.70;99.90
4749;DHT22;2388;53.582;9.962;2023-04-15T12:07:32;12.70;99.90
4749;DHT22;2388;53.582;9.962;2023-04-15T12:09:59;12.70;99.90
4749;DHT22;2388;53.582;9.962;2023-04-15T12:12:27;12.80;99.90
4749;DHT22;2388;53.582;9.962;2023-04-15T12:14:55;12.80;99.90
4749;DHT22;2388;53.582;9.962;2023-04-15T12:17:22;12.70;99.90
4749;DHT22;2388;53.582;9.962;2023-04-15T12:19:54;12.70;99.90
4749;DHT22;2388;53.582;9.962;2023-04-15T12:22:20;12.60;99.90
4749;DHT22;2388;53.582;9.962;2023-04-15T12:24:46;12.60;99.90
4749;DHT22;2388;53.582;9.962;2023-04-15T12:27:16;12.60;99.90
4749;DHT22;2388;53.582;9.962;2023-04-15T12:29:42;12.70;99.90
4749;DHT22;2388;53.582;9.962;2023-04-15T12:32:11;12.60;99.90
4749;DHT22;2388;53.582;9.962;2023-04-15T12:34:39;12.70;99.90
4749;DHT22;2388;53.582;9.962;2023-04-15T12:37:06;12.70;99.90
4749;DHT22;2388;53.582;9.962;2023-04-15T12:39:35;12.70;99.90
4749;DHT22;2388;53.582;9.962;2023-04-15T12:42:03;12.60;99.90
4749;DHT22;2388;53.582;9.962;2023-04-15T12:44:28;12.60;99.90
4749;DHT22;2388;53.582;9.962;2023-04-15T12:46:54;12.60;99.90
4749;DHT22;2388;53.582;9.962;2023-04-15T12:49:20;12.60;99.90
4749;DHT22;2388;53.582;9.962;2023-04-15T12:51:48;12.60;99.90
4749;DHT22;2388;53.582;9.962;2023-04-15T12:54:15;12.60;99.90
4749;DHT22;2388;53.582;9.962;2023-04-15T12:56:41;12.50;99.90
4749;DHT22;2388;53.582;9.962;2023-04-15T12:59:07;12.50;99.90
4749;DHT22;2388;53.582;9.962;2023-04-15T13:01:33;12.50;99.90
4749;DHT22;2388;53.582;9.962;2023-04-15T13:03:58;12.60;99.90
4749;DHT22;2388;53.582;9.962;2023-04-15T13:06:24;12.60;99.90
4749;DHT22;2388;53.582;9.962;2023-04-15T13:08:49;12.60;99.90
4749;DHT22;2388;53.582;9.962;2023-04-15T13:11:15;12.60;99.90
4749;DHT22;2388;53.582;9.962;2023-04-15T13:13:41;12.60;99.90
4749;DHT22;2388;53.582;9.962;2023-04-15T13:16:07;12.70;99.90
4749;DHT22;2388;53.582;9.962;2023-04-15T13:18:33;12.70;99.90
4749;DHT22;2388;53.582;9.962;2023-04-15T13:21:00;13.70;99.90
4749;DHT22;2388;53.582;9.962;2023-04-15T13:23:25;12.90;99.90
4749;DHT22;2388;53.582;9.962;2023-04-15T13:25:51;12.90;99.90
4749;DHT22;2388;53.582;9.962;2023-04-15T13:28:16;12.90;99.90
4749;DHT22;2388;53.582;9.962;2023-04-15T13:30:42;13.00;99.90
4749;DHT22;2388;53.582;9.962;2023-04-15T13:33:08;13.00;99.90
4749;DHT22;2388;53.582;9.962;2023-04-15T13:35:34;13.00;99.90
4749;DHT22;2388;53.582;9.962;2023-04-15T13:37:59;13.00;99.90
4749;DHT22;2388;53.582;9.962;2023-04-15T13:40:25;13.10;99.90
4749;DHT22;2388;53.582;9.962;2023-04-15T13:42:51;13.10;99.90
4749;DHT22;2388;53.582;9.962;2023-04-15T13:45:17;13.20;99.90
4749;DHT22;2388;53.582;9.962;2023-04-15T13:47:43;13.20;99.90
4749;DHT22;2388;53.582;9.962;2023-04-15T13:50:08;13.30;99.90
4749;DHT22;2388;53.582;9.962;2023-04-15T13:52:34;13.30;99.90
4749;DHT22;2388;53.582;9.962;2023-04-15T13:55:00;13.30;99.90
4749;DHT22;2388;53.582;9.962;2023-04-15T13:57:25;13.30;99.90
4749;DHT22;2388;53.582;9.962;2023-04-15T13:59:51;13.30;99.90
4749;DHT22;2388;53.582;9.962;2023-04-15T14:02:19;13.40;99.90
4749;DHT22;2388;53.582;9.962;2023-04-15T14:04:45;13.40;99.90
4749;DHT22;2388;53.582;9.962;2023-04-15T14:07:10;13.50;99.90
4749;DHT22;2388;53.582;9.962;2023-04-15T14:09:36;13.60;99.90
4749;DHT22;2388;53.582;9.962;2023-04-15T14:12:01;13.60;99.90
4749;DHT22;2388;53.582;9.962;2023-04-15T14:14:27;13.70;99.90
4749;DHT22;2388;53.582;9.962;2023-04-15T14:16:53;13.70;99.90
4749;DHT22;2388;53.582;9.962;2023-04-15T14:19:19;13.70;99.90
4749;DHT22;2388;53.582;9.962;2023-04-15T14:21:44;13.60;99.90
4749;DHT22;2388;53.582;9.962;2023-04-15T14:24:10;13.70;99.90
4749;DHT22;2388;53.582;9.962;2023-04-15T14:26:36;13.60;99.90
4749;DHT22;2388;53.582;9.962;2023-04-15T14:29:01;13.70;99.90
4749;DHT22;2388;53.582;9.962;2023-04-15T14:31:27;13.80;99.90
4749;DHT22;2388;53.582;9.962;2023-04-15T14:33:52;13.80;99.90
4749;DHT22;2388;53.582;9.962;2023-04-15T14:36:18;13.80;99.90
4749;DHT22;2388;53.582;9.962;2023-04-15T14:38:43;13.80;99.90
4749;DHT22;2388;53.582;9.962;2023-04-15T14:41:09;13.80;99.90
4749;DHT22;2388;53.582;9.962;2023-04-15T14:43:35;13.80;99.90
4749;DHT22;2388;53.582;9.962;2023-04-15T14:46:00;13.80;99.90
4749;DHT22;2388;53.582;9.962;2023-04-15T14:48:26;13.80;99.90
4749;DHT22;2388;53.582;9.962;2023-04-15T14:50:52;13.80;99.90
4749;DHT22;2388;53.582;9.962;2023-04-15T14:53:18;13.80;99.90
4749;DHT22;2388;53.582;9.962;2023-04-15T14:55:43;13.80;99.90
4749;DHT22;2388;53.582;9.962;2023-04-15T14:58:10;13.70;99.90
4749;DHT22;2388;53.582;9.962;2023-04-15T15:00:37;13.70;99.90
4749;DHT22;2388;53.582;9.962;2023-04-15T15:03:04;13.70;99.90
4749;DHT22;2388;53.582;9.962;2023-04-15T15:05:40;13.70;99.90
4749;DHT22;2388;53.582;9.962;2023-04-15T15:08:06;13.70;99.90
4749;DHT22;2388;53.582;9.962;2023-04-15T15:10:32;14.70;99.90
4749;DHT22;2388;53.582;9.962;2023-04-15T15:12:58;13.60;99.90
4749;DHT22;2388;53.582;9.962;2023-04-15T15:15:24;13.60;99.90
4749;DHT22;2388;53.582;9.962;2023-04-15T15:17:49;13.60;99.90
4749;DHT22;2388;53.582;9.962;2023-04-15T15:20:16;13.50;99.90
4749;DHT22;2388;53.582;9.962;2023-04-15T15:22:42;13.50;99.90
4749;DHT22;2388;53.582;9.962;2023-04-15T15:25:07;13.40;99.90
4749;DHT22;2388;53.582;9.962;2023-04-15T15:27:33;13.40;99.90
4749;DHT22;2388;53.582;9.962;2023-04-15T15:29:58;13.40;99.90
4749;DHT22;2388;53.582;9.962;2023-04-15T15:32:23;13.40;99.90
4749;DHT22;2388;53.582;9.962;2023-04-15T15:34:49;13.40;99.90
4749;DHT22;2388;53.582;9.962;2023-04-15T15:37:15;13.40;99.90
4749;DHT22;2388;53.582;9.962;2023-04-15T15:39:40;13.40;99.90
4749;DHT22;2388;53.582;9.962;2023-04-15T15:42:06;13.40;99.90
4749;DHT22;2388;53.582;9.962;2023-04-15T15:44:32;13.40;99.90
4749;DHT22;2388;53.582;9.962;2023-04-15T15:46:58;13.40;99.90
4749;DHT22;2388;53.582;9.962;2023-04-15T15:49:24;13.40;99.90
4749;DHT22;2388;53.582;9.962;2023-04-15T15:51:50;13.40;99.90
4749;DHT22;2388;53.582;9.962;2023-04-15T15:54:16;13.40;99.90
4749;DHT22;2388;53.582;9.962;2023-04-15T15:56:41;13.40;99.90
4749;DHT22;2388;53.582;9.962;2023-04-15T15:59:07;13.40;99.90
4749;DHT22;2388;53.582;9.962;2023-04-15T16:01:32;13.30;99.90
4749;DHT22;2388;53.582;9.962;2023-04-15T16:03:58;13.20;99.90
4749;DHT22;2388;53.582;9.962;2023-04-15T16:06:24;13.30;99.90
4749;DHT22;2388;53.582;9.962;2023-04-15T16:08:50;13.30;99.90
4749;DHT22;2388;53.582;9.962;2023-04-15T16:11:16;13.20;99.90
4749;DHT22;2388;53.582;9.962;2023-04-15T16:13:41;13.20;99.90
4749;DHT22;2388;53.582;9.962;2023-04-15T16:16:07;13.20;99.90